Flight Track Log - Related Links

Times and Time Zones

All times are in EDT time to prevent confusion due to time zone crossing. See the CSJ405 flight status page for this flight to view local times or setup timezone preferences in your user account.

Time Position Orientation Groundspeed Altitude Reporting Facility
EDT Latitude Longitude Course Direction KTS MPH feet Rate Location/Type
Fri 08:22:00 PM 41.0863 -74.3677 346° North  Level FlightAware Approximate
Fri 08:23:00 PM 41.1253 -74.3807 346° North  Level FlightAware Approximate
Fri 08:24:00 PM 41.1429 -74.4343 294° West  Level FlightAware Approximate
Fri 08:25:00 PM 41.1604 -74.4880 293° West  Level FlightAware Approximate
Fri 08:26:00 PM 41.1780 -74.5417 293° West  Level FlightAware Approximate
Fri 08:27:00 PM 41.1955 -74.5954 293° West  Level FlightAware Approximate
Fri 08:28:00 PM 41.2130 -74.6492 293° West  Level FlightAware Approximate
Fri 08:29:00 PM 41.2304 -74.7029 293° West  Level FlightAware Approximate
Fri 08:30:00 PM 41.2478 -74.7568 293° West  Level FlightAware Approximate
Fri 08:31:00 PM 41.2772 -74.8004 313° West  Level Estimated
Fri 08:32:00 PM 41.3057 -74.8452 310° West  Level FlightAware Approximate
Fri 08:33:00 PM 41.3341 -74.8900 310° West  Level FlightAware Approximate
Fri 08:34:00 PM 41.3625 -74.9349 310° West  Level FlightAware Approximate
Fri 08:35:00 PM 41.3909 -74.9798 310° West  Level FlightAware Approximate
Fri 08:36:00 PM 41.4193 -75.0247 310° West  Level FlightAware Approximate
Fri 08:37:00 PM 41.4476 -75.0697 310° West  Level FlightAware Approximate
Fri 08:38:00 PM 41.4759 -75.1148 310° West  Level FlightAware Approximate
Fri 08:39:00 PM 41.5043 -75.1598 310° West  Level FlightAware Approximate
Fri 08:40:00 PM 41.5326 -75.2049 310° West  Level FlightAware Approximate
Fri 08:41:00 PM 41.5608 -75.2501 310° West  Level FlightAware Approximate
Fri 08:42:00 PM 41.5891 -75.2952 310° West  Level FlightAware Approximate
Fri 08:43:00 PM 41.6174 -75.3404 310° West  Level FlightAware Approximate
Fri 08:44:00 PM 41.6456 -75.3857 310° West  Level FlightAware Approximate
Fri 08:45:00 PM 41.6738 -75.4310 310° West  Level FlightAware Approximate
Fri 08:46:00 PM 41.7032 -75.4750 311° West  Level Estimated
Fri 08:47:00 PM 41.7323 -75.5193 311° West  Level FlightAware Approximate
Fri 08:48:00 PM 41.7613 -75.5637 311° West  Level FlightAware Approximate
Fri 08:49:00 PM 41.7903 -75.6082 311° West  Level FlightAware Approximate
Fri 08:50:00 PM 41.8193 -75.6527 311° West  Level FlightAware Approximate
Fri 08:51:00 PM 41.8483 -75.6972 311° West  Level FlightAware Approximate
Fri 08:51:55 PM 42.4883 -76.6886 311° West 162 186 6,000  Level Cleveland Center
Fri 08:52:00 PM 41.8773 -75.7418 311° West  Level FlightAware Approximate
Fri 08:52:19 PM 42.5014 -76.7075 313° West 161 185 6,100  Level Cleveland Center
Fri 08:53:00 PM 41.9062 -75.7864 311° West  Level FlightAware Approximate
Fri 08:53:20 PM 42.5300 -76.7539 310° West 161 185 6,000  Level Cleveland Center
Fri 08:54:00 PM 41.9352 -75.8311 311° West  Level FlightAware Approximate
Fri 08:54:21 PM 42.5606 -76.7969 314° West 161 185 6,000  Level Cleveland Center
Fri 08:55:00 PM 41.9641 -75.8758 311° West  Level FlightAware Approximate
Fri 08:55:21 PM 42.5933 -76.8431 314° West 161 185 6,000  Level Cleveland Center
Fri 08:56:00 PM 41.9930 -75.9205 311° West  Level FlightAware Approximate
Fri 08:56:22 PM 42.6242 -76.8892 312° West 161 185 6,000  Level Cleveland Center
Fri 08:57:00 PM 42.0219 -75.9653 311° West  Level FlightAware Approximate
Fri 08:57:22 PM 42.6528 -76.9356 310° West 160 184 6,000  Level Cleveland Center
Fri 08:58:23 PM 42.6814 -76.9819 310° West 161 185 6,100  Climbing Cleveland Center
Fri 08:59:24 PM 42.7097 -77.0283 310° West 160 184 6,000 -50 Descending Cleveland Center
Fri 09:00:24 PM 42.7403 -77.0719 314° West 161 185 6,000 52 Level Cleveland Center
Fri 09:01:19 PM 42.7667 -77.1156 310° West 158 182 6,100 52 Climbing Cleveland Center
Fri 09:02:19 PM 42.7972 -77.1592 314° West 158 182 6,100 -50 Level Cleveland Center
Fri 09:03:20 PM 42.8236 -77.2086 306° West 158 182 6,000 -197 Descending Cleveland Center
Fri 09:04:21 PM 42.8519 -77.2525 311° West 163 188 5,700 -446 Descending Cleveland Center
Fri 09:05:21 PM 42.8869 -77.3075 311° West 172 198 5,100 -545 Descending Cleveland Center
Fri 09:06:22 PM 42.9156 -77.3569 308° West 169 194 4,600 -492 Descending Cleveland Center
Fri 09:07:23 PM 42.9481 -77.4036 314° West 168 193 4,100 -446 Descending Cleveland Center
Fri 09:08:23 PM 42.9764 -77.4503 310° West 168 193 3,700 -446 Descending Cleveland Center
Fri 09:09:24 PM 43.0047 -77.5028 306° West 168 193 3,200 -496 Descending Cleveland Center
Fri 09:10:24 PM 43.0292 -77.5583 301° West 169 194 2,700 -446 Descending Cleveland Center
Fri 09:11:25 PM 43.0536 -77.6111 302° West 167 192 2,300 -393 Descending Cleveland Center
Fri 09:12:26 PM 43.0736 -77.6669 296° West 162 186 1,900 -378 Descending Cleveland Center
Fri 09:13:32 PM 43.1039 -77.7025 319° Northwest 108 124 1,500 -364 Descending Cleveland Center
Fri 09:15:00 PM 43.1167 -77.6667 312° West  Level FlightAware Approximate
Fri 09:22:00 PM 43.1191 -77.6719 312° West  Level Estimated

Login

Don't have an account? Register now (free) for customized features, flight alerts, and more!